Airport View

Enter AWOS ICAO identifier for current METAR.

ex. KFNL

KNUI 192153Z AUTO 11004KT 10SM CLR 18/08 A3003 RMK AO2 SLP167 T01780083

19 Oct 2019 22:27

Other Area AWOS: KNHK - K2W6 - KTGI - KXSA

TAF KNHK 1915/2015 14008KT 9999 SCT250 QNH2999INS BECMG 2001/2003 17010KT 9999 FEW120 BKN250 QNH2995INS FM201000 12006KT 9999 VCSH FEW030 SCT120 BKN250 QNH2992INS TEMPO 2011/2014 4800 SHRA BR SCT020 BKN090 OVC180 AUTOMATED SENSOR METWATCH 1920 TIL 2012 T16/1921Z T12/2011Z FN00216